Time;durP1;ratioP1;P1;durP2;ratioP2;P2;SDS_P1;SDS_P2;PMS_P1;PMS_P2;Temp;Humidity;BMP_temperature;BMP_pressure;BME280_temperature;BME280_humidity;BME280_pressure;Samples;Min_cycle;Max_cycle;Signal;HPM_P1;HPM_P2
2023/02/02 00:03:30;;;;;;;13.68;8.02;;;;;;;;;;10330595;28;20018;-61
2023/02/02 00:08:31;;;;;;;9.52;7.20;;;;;;;;;;10334930;28;20030;-69
2023/02/02 00:13:32;;;;;;;12.75;7.72;;;;;;;;;;10325759;28;20049;-68
2023/02/02 00:18:32;;;;;;;13.77;8.88;;;;;;;;;;10316550;28;20035;-69
2023/02/02 00:23:33;;;;;;;11.23;7.82;;;;;;;;;;10325945;28;20485;-69
2023/02/02 00:28:38;;;;;;;11.07;8.57;;;;;;;;;;10331356;28;20387;-68
2023/02/02 00:33:39;;;;;;;11.18;8.23;;;;;;;;;;10334931;28;20034;-68
2023/02/02 00:38:39;;;;;;;12.02;8.13;;;;;;;;;;10334012;28;20509;-67
2023/02/02 00:43:40;;;;;;;10.57;7.97;;;;;;;;;;10334402;28;20598;-68
2023/02/02 00:48:40;;;;;;;9.95;7.55;;;;;;;;;;10337406;28;20477;-66
2023/02/02 00:53:41;;;;;;;12.77;8.13;;;;;;;;;;10343369;28;20033;-70
2023/02/02 00:58:49;;;;;;;11.30;8.68;;;;;;;;;;10336037;28;20034;-67
2023/02/02 01:03:50;;;;;;;13.27;8.18;;;;;;;;;;10333076;28;20030;-65
2023/02/02 01:08:51;;;;;;;14.63;8.50;;;;;;;;;;10331798;28;20038;-67
2023/02/02 01:13:51;;;;;;;17.83;8.20;;;;;;;;;;10331334;28;20035;-61
2023/02/02 01:18:52;;;;;;;11.57;8.65;;;;;;;;;;10329442;28;20153;-66
2023/02/02 01:23:52;;;;;;;12.02;7.90;;;;;;;;;;10332027;28;20032;-66
2023/02/02 01:28:53;;;;;;;11.82;7.97;;;;;;;;;;10366938;28;20030;-57
2023/02/02 01:33:53;;;;;;;11.95;8.10;;;;;;;;;;10356672;28;20027;-51
2023/02/02 01:38:54;;;;;;;10.90;7.43;;;;;;;;;;10335292;28;20084;-53
2023/02/02 01:44:02;;;;;;;11.63;7.78;;;;;;;;;;10337731;28;20048;-53
2023/02/02 01:49:18;;;;;;;9.60;7.68;;;;;;;;;;10330516;28;20093;-50
2023/02/02 01:54:35;;;;;;;11.50;7.40;;;;;;;;;;10329538;28;20540;-55
2023/02/02 01:59:36;;;;;;;10.20;7.57;;;;;;;;;;10345908;28;20034;-52
2023/02/02 02:04:37;;;;;;;9.82;7.85;;;;;;;;;;10330861;28;20031;-49
2023/02/02 02:09:37;;;;;;;9.80;7.15;;;;;;;;;;10331614;28;20034;-53
2023/02/02 02:26:33;;;;;;;10.40;7.70;;;;;;;;;;10314821;28;20034;-64
2023/02/02 02:31:54;;;;;;;8.32;6.80;;;;;;;;;;10321046;28;20255;-60
2023/02/02 02:37:09;;;;;;;9.23;7.60;;;;;;;;;;10346606;28;20137;-62
2023/02/02 02:42:20;;;;;;;10.55;7.82;;;;;;;;;;10327519;28;20026;-67
2023/02/02 02:47:21;;;;;;;9.75;7.50;;;;;;;;;;10311323;28;20042;-66
2023/02/02 02:52:22;;;;;;;9.23;7.57;;;;;;;;;;10326582;28;20137;-62
2023/02/02 02:58:05;;;;;;;9.57;7.07;;;;;;;;;;10327480;28;20038;-64
2023/02/02 03:03:56;;;;;;;9.50;7.35;;;;;;;;;;10346173;28;20034;-60
2023/02/02 03:09:20;;;;;;;10.50;7.95;;;;;;;;;;10344398;28;20096;-59
2023/02/02 03:14:21;;;;;;;9.48;7.32;;;;;;;;;;10346636;28;20022;-62
2023/02/02 03:19:22;;;;;;;10.98;7.32;;;;;;;;;;10352013;28;20044;-62
2023/02/02 03:24:22;;;;;;;9.77;7.40;;;;;;;;;;10346192;28;20441;-66
2023/02/02 03:29:23;;;;;;;10.75;7.70;;;;;;;;;;10338964;28;20100;-51
2023/02/02 03:34:25;;;;;;;10.93;7.10;;;;;;;;;;10359913;28;20039;-67
2023/02/02 03:39:25;;;;;;;12.82;7.88;;;;;;;;;;10339304;28;20095;-67
2023/02/02 03:44:26;;;;;;;11.30;7.68;;;;;;;;;;10335547;28;20354;-65
2023/02/02 03:49:26;;;;;;;12.25;8.07;;;;;;;;;;10338855;28;20476;-66
2023/02/02 03:54:27;;;;;;;9.40;7.60;;;;;;;;;;10351899;28;20422;-65
2023/02/02 03:59:28;;;;;;;9.32;7.65;;;;;;;;;;10343411;28;20119;-65
2023/02/02 04:04:37;;;;;;;11.85;7.25;;;;;;;;;;10349118;28;20555;-64
2023/02/02 04:09:38;;;;;;;8.93;7.30;;;;;;;;;;10349106;28;20429;-67
2023/02/02 04:14:39;;;;;;;9.45;6.80;;;;;;;;;;10357311;28;20029;-64
2023/02/02 04:19:39;;;;;;;10.45;7.65;;;;;;;;;;10345847;28;20559;-67
2023/02/02 04:24:40;;;;;;;12.63;7.60;;;;;;;;;;10342395;28;20482;-64
2023/02/02 04:29:40;;;;;;;9.50;7.38;;;;;;;;;;10349445;28;20381;-64
2023/02/02 04:34:43;;;;;;;9.50;7.45;;;;;;;;;;10358001;28;20026;-67
2023/02/02 04:39:44;;;;;;;10.50;7.18;;;;;;;;;;10347156;28;20552;-67
2023/02/02 04:44:45;;;;;;;9.13;7.45;;;;;;;;;;10344731;28;20022;-67
2023/02/02 04:49:45;;;;;;;11.80;7.38;;;;;;;;;;10341008;28;20043;-65
2023/02/02 04:54:46;;;;;;;10.70;6.65;;;;;;;;;;10347073;28;20026;-67
2023/02/02 04:59:46;;;;;;;8.35;6.97;;;;;;;;;;10355264;28;20101;-65
2023/02/02 05:04:47;;;;;;;7.47;6.07;;;;;;;;;;10364561;28;20030;-68
2023/02/02 05:09:47;;;;;;;10.20;7.55;;;;;;;;;;10354506;28;20166;-65
2023/02/02 05:14:48;;;;;;;9.50;6.78;;;;;;;;;;10340570;28;20045;-66
2023/02/02 05:19:48;;;;;;;8.77;6.60;;;;;;;;;;10357212;28;20033;-68
2023/02/02 05:24:49;;;;;;;10.45;6.95;;;;;;;;;;10344277;28;20042;-60
2023/02/02 05:29:50;;;;;;;8.52;6.95;;;;;;;;;;10338399;28;20096;-67
2023/02/02 05:34:50;;;;;;;9.10;7.00;;;;;;;;;;10333907;28;20058;-67
2023/02/02 05:39:52;;;;;;;8.18;6.43;;;;;;;;;;10363960;28;20071;-64
2023/02/02 05:44:53;;;;;;;9.30;7.32;;;;;;;;;;10352192;28;20080;-68
2023/02/02 05:49:53;;;;;;;7.90;6.70;;;;;;;;;;10345026;28;20038;-66
2023/02/02 05:54:54;;;;;;;8.20;6.75;;;;;;;;;;10335073;28;20022;-67
2023/02/02 05:59:54;;;;;;;7.72;6.10;;;;;;;;;;10335930;28;20265;-63
2023/02/02 06:04:55;;;;;;;8.77;6.95;;;;;;;;;;10354055;28;20034;-66
2023/02/02 06:09:55;;;;;;;8.63;7.07;;;;;;;;;;10348272;28;20591;-65
2023/02/02 06:14:56;;;;;;;9.48;6.93;;;;;;;;;;10346124;28;20390;-59
2023/02/02 06:19:57;;;;;;;7.85;6.05;;;;;;;;;;10344729;28;19917;-53
2023/02/02 06:24:57;;;;;;;11.38;6.95;;;;;;;;;;10340382;28;20030;-64
2023/02/02 06:29:58;;;;;;;9.05;6.93;;;;;;;;;;10337600;28;20026;-70
2023/02/02 06:34:58;;;;;;;12.25;9.95;;;;;;;;;;10350879;28;20446;-68
2023/02/02 06:39:59;;;;;;;17.50;11.90;;;;;;;;;;10347412;28;20057;-61
2023/02/02 06:45:00;;;;;;;21.48;12.38;;;;;;;;;;10327990;28;20042;-68
2023/02/02 06:50:01;;;;;;;21.02;13.82;;;;;;;;;;10352420;28;20269;-55
2023/02/02 06:55:02;;;;;;;32.67;14.40;;;;;;;;;;10339825;28;20037;-62
2023/02/02 07:00:03;;;;;;;41.63;14.70;;;;;;;;;;10347509;28;20025;-51
2023/02/02 07:05:05;;;;;;;31.75;14.23;;;;;;;;;;10349395;28;20604;-53
2023/02/02 07:10:06;;;;;;;26.55;14.02;;;;;;;;;;10348029;28;20018;-61
2023/02/02 07:15:07;;;;;;;28.75;13.70;;;;;;;;;;10355195;28;20156;-61
2023/02/02 07:20:09;;;;;;;29.58;14.23;;;;;;;;;;10339843;28;20709;-56
2023/02/02 07:25:09;;;;;;;29.15;14.13;;;;;;;;;;10331897;28;20026;-52
2023/02/02 07:30:10;;;;;;;32.03;15.05;;;;;;;;;;10339452;28;20036;-52
2023/02/02 07:35:11;;;;;;;26.05;13.35;;;;;;;;;;10335787;28;20413;-50
2023/02/02 07:40:12;;;;;;;23.13;13.30;;;;;;;;;;10354850;28;20030;-51
2023/02/02 07:45:14;;;;;;;22.90;13.50;;;;;;;;;;10366156;28;20091;-50
2023/02/02 07:50:14;;;;;;;32.25;13.32;;;;;;;;;;10365766;28;20040;-54
2023/02/02 07:55:15;;;;;;;21.77;13.32;;;;;;;;;;10365486;28;20022;-61
2023/02/02 08:00:16;;;;;;;25.10;12.70;;;;;;;;;;10365865;28;20620;-61
2023/02/02 08:05:17;;;;;;;21.58;12.02;;;;;;;;;;10365569;28;20033;-63
2023/02/02 08:10:17;;;;;;;18.73;12.70;;;;;;;;;;10364597;28;20037;-59
2023/02/02 08:15:18;;;;;;;24.75;12.05;;;;;;;;;;10352862;28;20474;-62
2023/02/02 08:20:19;;;;;;;25.20;12.70;;;;;;;;;;10364435;28;20021;-61
2023/02/02 08:25:20;;;;;;;24.15;12.35;;;;;;;;;;10338414;28;20061;-56
2023/02/02 08:30:20;;;;;;;20.60;11.75;;;;;;;;;;10331828;28;20037;-59
2023/02/02 08:35:21;;;;;;;22.77;11.32;;;;;;;;;;10330939;28;20516;-61
2023/02/02 08:40:23;;;;;;;20.08;11.02;;;;;;;;;;10366334;28;20018;-63
2023/02/02 08:45:24;;;;;;;24.95;11.93;;;;;;;;;;10365195;28;20087;-63
2023/02/02 08:50:25;;;;;;;17.15;11.10;;;;;;;;;;10370841;28;20072;-58
2023/02/02 08:55:26;;;;;;;23.13;11.90;;;;;;;;;;10372113;28;20030;-57
2023/02/02 09:00:26;;;;;;;20.73;11.13;;;;;;;;;;10373041;28;20033;-58
2023/02/02 09:05:27;;;;;;;18.40;11.05;;;;;;;;;;10373167;28;20088;-62
2023/02/02 09:10:30;;;;;;;22.48;11.70;;;;;;;;;;10371474;28;20033;-57
2023/02/02 09:15:31;;;;;;;20.60;12.02;;;;;;;;;;10359751;28;20137;-60
2023/02/02 09:20:32;;;;;;;16.42;10.68;;;;;;;;;;10358166;28;20030;-55
2023/02/02 09:25:32;;;;;;;18.45;10.95;;;;;;;;;;10352728;28;20022;-58
2023/02/02 09:30:33;;;;;;;17.65;10.88;;;;;;;;;;10351705;28;20026;-58
2023/02/02 09:35:34;;;;;;;20.15;11.02;;;;;;;;;;10350690;28;20066;-59
2023/02/02 09:40:34;;;;;;;15.30;9.93;;;;;;;;;;10371931;28;20351;-61
2023/02/02 09:45:53;;;;;;;16.65;11.32;;;;;;;;;;10349571;28;20399;-61
2023/02/02 09:51:02;;;;;;;17.10;10.75;;;;;;;;;;10342680;28;20110;-60
2023/02/02 09:56:09;;;;;;;16.33;10.50;;;;;;;;;;10339263;28;20504;-54
2023/02/02 10:01:18;;;;;;;20.65;10.57;;;;;;;;;;10369851;28;20049;-55
2023/02/02 10:06:36;;;;;;;22.40;11.00;;;;;;;;;;10362821;28;20034;-59
2023/02/02 10:12:00;;;;;;;16.98;10.45;;;;;;;;;;10356485;28;20099;-57
2023/02/02 10:17:22;;;;;;;18.15;10.50;;;;;;;;;;10357173;28;20040;-62
2023/02/02 10:22:28;;;;;;;14.23;10.40;;;;;;;;;;10357509;28;20389;-53
2023/02/02 10:27:38;;;;;;;14.40;9.73;;;;;;;;;;10368006;28;20033;-61
2023/02/02 10:33:03;;;;;;;19.20;10.98;;;;;;;;;;10345813;28;20616;-58
2023/02/02 10:38:45;;;;;;;18.17;10.00;;;;;;;;;;10332504;28;20049;-63
2023/02/02 10:44:03;;;;;;;15.15;10.32;;;;;;;;;;10342580;28;20378;-61
2023/02/02 10:49:38;;;;;;;18.83;10.18;;;;;;;;;;10338216;28;20033;-63
2023/02/02 10:55:18;;;;;;;15.98;10.77;;;;;;;;;;10335705;28;20036;-62
2023/02/02 11:00:52;;;;;;;15.30;10.95;;;;;;;;;;10330965;28;20238;-57
2023/02/02 11:11:41;;;;;;;16.67;9.77;;;;;;;;;;10349137;28;20034;-57
2023/02/02 11:16:44;;;;;;;16.55;10.02;;;;;;;;;;10350083;28;20584;-61
2023/02/02 11:21:49;;;;;;;18.75;10.90;;;;;;;;;;10344073;28;20057;-50
2023/02/02 11:27:01;;;;;;;15.52;10.05;;;;;;;;;;10327832;28;20037;-51
2023/02/02 11:32:24;;;;;;;12.77;9.35;;;;;;;;;;10358784;28;20112;-52
2023/02/02 11:37:24;;;;;;;13.77;9.48;;;;;;;;;;10366938;28;20054;-50
2023/02/02 11:42:26;;;;;;;13.98;9.65;;;;;;;;;;10366711;28;20428;-51
2023/02/02 11:47:31;;;;;;;14.65;9.25;;;;;;;;;;10366471;28;20030;-50
2023/02/02 11:52:32;;;;;;;15.50;9.75;;;;;;;;;;10366409;28;20775;-50
2023/02/02 11:57:33;;;;;;;12.68;9.20;;;;;;;;;;10365399;28;20037;-51
2023/02/02 12:02:33;;;;;;;12.45;9.00;;;;;;;;;;10366180;28;20433;-55
2023/02/02 12:07:36;;;;;;;12.15;9.10;;;;;;;;;;10366257;28;20048;-54
2023/02/02 12:12:56;;;;;;;13.63;9.38;;;;;;;;;;10351877;28;20061;-52
2023/02/02 12:18:27;;;;;;;15.05;9.70;;;;;;;;;;10359667;28;20108;-51
2023/02/02 12:23:56;;;;;;;12.75;9.15;;;;;;;;;;10362321;28;20025;-50
2023/02/02 12:29:14;;;;;;;12.82;9.32;;;;;;;;;;10379278;28;20405;-58
2023/02/02 12:34:49;;;;;;;13.82;9.68;;;;;;;;;;10379309;28;20458;-50
2023/02/02 12:40:23;;;;;;;13.75;9.25;;;;;;;;;;10348082;28;20109;-58
2023/02/02 12:45:54;;;;;;;13.57;9.15;;;;;;;;;;10347331;28;20096;-56
2023/02/02 12:51:18;;;;;;;12.85;9.70;;;;;;;;;;10343531;28;20025;-56
2023/02/02 12:56:44;;;;;;;17.50;11.35;;;;;;;;;;10342148;28;20040;-55
2023/02/02 13:02:36;;;;;;;16.60;12.13;;;;;;;;;;10357788;28;20026;-63
2023/02/02 13:07:46;;;;;;;15.70;11.35;;;;;;;;;;10345060;28;20062;-63
2023/02/02 13:12:56;;;;;;;17.40;12.10;;;;;;;;;;10347344;28;20053;-58
2023/02/02 13:18:00;;;;;;;17.70;12.18;;;;;;;;;;10359010;28;20087;-52
2023/02/02 13:23:27;;;;;;;17.08;11.82;;;;;;;;;;10364834;28;20034;-55
2023/02/02 13:29:01;;;;;;;14.88;11.13;;;;;;;;;;10354816;28;20044;-58
2023/02/02 13:34:16;;;;;;;17.38;11.23;;;;;;;;;;10336259;28;20030;-59
2023/02/02 13:39:25;;;;;;;16.98;11.85;;;;;;;;;;10352289;28;20176;-62
2023/02/02 13:44:34;;;;;;;18.40;12.30;;;;;;;;;;10346608;28;20425;-61
2023/02/02 13:49:40;;;;;;;;;;;;;;;;;;10323682;28;20038;-62
2023/02/02 13:55:02;;;;;;;21.70;12.15;;;;;;;;;;10342241;28;19918;-57
2023/02/02 14:00:32;;;;;;;19.17;11.20;;;;;;;;;;10316450;28;20050;-62
2023/02/02 14:05:39;;;;;;;17.73;11.55;;;;;;;;;;10335410;28;20092;-60
2023/02/02 14:10:54;;;;;;;18.20;13.32;;;;;;;;;;10332001;28;20037;-61
2023/02/02 14:15:57;;;;;;;37.03;16.02;;;;;;;;;;10332036;28;20052;-60
2023/02/02 14:20:57;;;;;;;35.10;15.43;;;;;;;;;;10347505;28;20095;-62
2023/02/02 14:26:08;;;;;;;24.83;15.57;;;;;;;;;;10358483;28;20355;-61
2023/02/02 14:31:51;;;;;;;24.10;15.60;;;;;;;;;;10339496;28;20030;-62
2023/02/02 14:37:22;;;;;;;26.20;15.82;;;;;;;;;;10318314;28;20101;-59
2023/02/02 14:48:18;;;;;;;24.00;15.30;;;;;;;;;;10330251;28;20105;-61
2023/02/02 14:53:37;;;;;;;22.05;14.93;;;;;;;;;;10343166;28;20022;-55
2023/02/02 14:58:50;;;;;;;32.58;15.45;;;;;;;;;;10349134;28;20112;-58
2023/02/02 15:04:25;;;;;;;34.05;16.73;;;;;;;;;;10330080;28;20133;-59
2023/02/02 15:09:37;;;;;;;25.95;15.40;;;;;;;;;;10320457;28;20105;-62
2023/02/02 15:14:46;;;;;;;30.83;16.98;;;;;;;;;;10325788;28;20046;-61
2023/02/02 15:20:21;;;;;;;;;;;;;;;;;;10345163;28;20108;-73
2023/02/02 15:25:47;;;;;;;42.67;18.63;;;;;;;;;;10342400;28;19922;-62
2023/02/02 15:30:56;;;;;;;39.45;18.45;;;;;;;;;;10354522;28;20038;-63
2023/02/02 15:36:02;;;;;;;31.60;18.45;;;;;;;;;;10346234;28;20073;-59
2023/02/02 15:41:13;;;;;;;37.85;17.67;;;;;;;;;;10363316;28;20073;-63
2023/02/02 15:46:23;;;;;;;30.20;17.85;;;;;;;;;;10320720;28;20355;-64
2023/02/02 15:51:23;;;;;;;32.08;16.40;;;;;;;;;;10333513;28;20425;-64
2023/02/02 15:56:24;;;;;;;33.67;18.40;;;;;;;;;;10326427;28;20022;-65
2023/02/02 16:01:30;;;;;;;31.92;18.33;;;;;;;;;;10329231;28;20381;-63
2023/02/02 16:06:33;;;;;;;27.00;17.92;;;;;;;;;;10311688;28;20026;-66
2023/02/02 16:11:41;;;;;;;39.88;17.25;;;;;;;;;;10327546;28;20069;-64
2023/02/02 16:16:42;;;;;;;36.25;18.08;;;;;;;;;;10327480;28;20042;-65
2023/02/02 16:22:04;;;;;;;26.45;16.50;;;;;;;;;;10339308;28;20470;-58
2023/02/02 16:27:10;;;;;;;30.58;16.60;;;;;;;;;;10327271;28;20025;-52
2023/02/02 16:32:31;;;;;;;23.85;15.25;;;;;;;;;;10334671;28;20028;-52
2023/02/02 16:37:35;;;;;;;27.42;15.35;;;;;;;;;;10344321;28;20045;-53
2023/02/02 16:42:35;;;;;;;28.20;17.38;;;;;;;;;;10365094;28;20021;-50
2023/02/02 16:47:37;;;;;;;32.65;15.55;;;;;;;;;;10364088;28;20026;-51
2023/02/02 16:52:58;;;;;;;28.50;16.88;;;;;;;;;;10361981;28;20260;-51
2023/02/02 16:58:00;;;;;;;25.52;15.82;;;;;;;;;;10363669;28;20087;-50
2023/02/02 17:03:07;;;;;;;25.67;15.77;;;;;;;;;;10364004;28;20026;-60
2023/02/02 17:08:08;;;;;;;21.55;15.38;;;;;;;;;;10364028;28;20038;-52
2023/02/02 17:13:31;;;;;;;29.42;15.80;;;;;;;;;;10367138;28;20034;-49
2023/02/02 17:18:31;;;;;;;22.88;15.80;;;;;;;;;;10372077;28;20030;-49
2023/02/02 17:23:38;;;;;;;24.42;15.75;;;;;;;;;;10335636;28;20034;-51
2023/02/02 17:28:40;;;;;;;21.67;14.73;;;;;;;;;;10338717;28;20288;-50
2023/02/02 17:33:44;;;;;;;30.27;17.00;;;;;;;;;;10339045;28;20034;-50
2023/02/02 17:38:45;;;;;;;21.67;15.38;;;;;;;;;;10339975;28;20137;-51
2023/02/02 17:43:45;;;;;;;25.23;15.90;;;;;;;;;;10341726;28;20370;-62
2023/02/02 17:48:46;;;;;;;22.85;15.25;;;;;;;;;;10345878;28;20030;-51
2023/02/02 17:53:47;;;;;;;25.17;15.05;;;;;;;;;;10361579;28;20034;-50
2023/02/02 17:58:47;;;;;;;24.55;15.30;;;;;;;;;;10371802;28;20037;-52
2023/02/02 18:03:49;;;;;;;24.42;16.70;;;;;;;;;;10358363;28;20030;-49
2023/02/02 18:08:50;;;;;;;21.98;15.35;;;;;;;;;;10364855;28;20092;-49
2023/02/02 18:13:50;;;;;;;24.88;15.48;;;;;;;;;;10333943;28;20031;-49
2023/02/02 18:18:52;;;;;;;22.52;14.77;;;;;;;;;;10343934;28;20505;-48
2023/02/02 18:23:53;;;;;;;23.40;15.65;;;;;;;;;;10341379;28;20026;-49
2023/02/02 18:28:53;;;;;;;26.65;16.92;;;;;;;;;;10337423;28;20041;-47
2023/02/02 18:33:54;;;;;;;21.90;15.15;;;;;;;;;;10320544;28;20026;-57
2023/02/02 18:38:56;;;;;;;24.17;14.80;;;;;;;;;;10342881;28;20108;-48
2023/02/02 18:43:57;;;;;;;19.92;14.90;;;;;;;;;;10344030;28;20170;-48
2023/02/02 18:48:57;;;;;;;23.23;15.07;;;;;;;;;;10334403;28;20166;-49
2023/02/02 18:54:01;;;;;;;19.92;14.85;;;;;;;;;;10331650;28;20023;-48
2023/02/02 18:59:01;;;;;;;20.48;13.65;;;;;;;;;;10331017;28;20494;-51
2023/02/02 19:04:03;;;;;;;21.73;13.57;;;;;;;;;;10329684;28;20022;-50
2023/02/02 19:09:05;;;;;;;23.13;13.23;;;;;;;;;;10337369;28;20037;-53
2023/02/02 19:14:23;;;;;;;21.05;12.45;;;;;;;;;;10324266;28;20038;-58
2023/02/02 19:19:33;;;;;;;18.20;13.30;;;;;;;;;;10321661;28;20371;-54
2023/02/02 19:24:38;;;;;;;35.00;19.13;;;;;;;;;;10324820;28;20030;-49
2023/02/02 19:29:38;;;;;;;32.10;17.45;;;;;;;;;;10315342;28;20035;-67
2023/02/02 19:34:47;;;;;;;30.00;17.95;;;;;;;;;;10317934;28;20061;-54
2023/02/02 19:39:47;;;;;;;36.50;17.35;;;;;;;;;;10335485;28;20134;-53
2023/02/02 19:44:48;;;;;;;44.88;18.13;;;;;;;;;;10338923;28;20046;-52
2023/02/02 19:49:49;;;;;;;45.25;19.52;;;;;;;;;;10327025;28;20034;-52
2023/02/02 19:54:51;;;;;;;40.50;18.20;;;;;;;;;;10324749;28;20486;-54
2023/02/02 19:59:53;;;;;;;41.00;19.38;;;;;;;;;;10327273;28;20121;-53
2023/02/02 20:05:22;;;;;;;39.75;18.77;;;;;;;;;;10331416;28;20041;-56
2023/02/02 20:10:37;;;;;;;36.70;18.92;;;;;;;;;;10324680;28;20415;-52
2023/02/02 20:15:38;;;;;;;39.35;18.63;;;;;;;;;;10332372;28;20113;-50
2023/02/02 20:20:42;;;;;;;29.80;19.02;;;;;;;;;;10332357;28;20030;-59
2023/02/02 20:25:43;;;;;;;36.17;18.05;;;;;;;;;;10332026;28;20031;-52
2023/02/02 20:30:43;;;;;;;37.45;19.25;;;;;;;;;;10333872;28;20030;-53
2023/02/02 20:35:44;;;;;;;35.88;18.98;;;;;;;;;;10348318;28;20063;-53
2023/02/02 20:40:44;;;;;;;27.20;17.15;;;;;;;;;;10356245;28;20030;-53
2023/02/02 20:45:46;;;;;;;29.00;17.33;;;;;;;;;;10370240;28;20026;-56
2023/02/02 20:50:46;;;;;;;27.40;16.77;;;;;;;;;;10364953;28;20026;-50
2023/02/02 20:55:47;;;;;;;31.33;15.93;;;;;;;;;;10372698;28;20029;-55
2023/02/02 21:00:47;;;;;;;25.45;15.45;;;;;;;;;;10359332;28;20026;-55
2023/02/02 21:05:48;;;;;;;30.40;17.38;;;;;;;;;;10367267;28;20053;-49
2023/02/02 21:10:49;;;;;;;27.35;16.20;;;;;;;;;;10364606;28;20060;-49
2023/02/02 21:15:49;;;;;;;22.50;15.18;;;;;;;;;;10367044;28;20208;-50
2023/02/02 21:20:50;;;;;;;30.05;16.80;;;;;;;;;;10351980;28;20089;-56
2023/02/02 21:25:50;;;;;;;26.50;16.02;;;;;;;;;;10347339;28;20389;-50
2023/02/02 21:30:51;;;;;;;25.15;16.08;;;;;;;;;;10334333;28;20497;-51
2023/02/02 21:35:51;;;;;;;29.23;19.10;;;;;;;;;;10332327;28;20449;-50
2023/02/02 21:40:54;;;;;;;28.80;19.08;;;;;;;;;;10349394;28;20381;-50
2023/02/02 21:45:56;;;;;;;35.63;20.23;;;;;;;;;;10349318;28;20022;-53
2023/02/02 21:50:56;;;;;;;30.58;19.90;;;;;;;;;;10343413;28;20022;-50
2023/02/02 21:55:58;;;;;;;35.20;21.10;;;;;;;;;;10334938;28;20041;-49
2023/02/02 22:01:38;;;;;;;36.30;21.52;;;;;;;;;;10335909;28;20034;-64
2023/02/02 22:06:45;;;;;;;38.47;20.83;;;;;;;;;;10366417;28;20026;-63
2023/02/02 22:11:48;;;;;;;37.70;21.15;;;;;;;;;;10350085;28;20505;-61
2023/02/02 22:16:52;;;;;;;35.97;21.20;;;;;;;;;;10365175;28;20026;-60
2023/02/02 22:22:12;;;;;;;41.13;21.98;;;;;;;;;;10366537;28;20117;-64
2023/02/02 22:27:20;;;;;;;38.78;21.23;;;;;;;;;;10364705;28;20160;-64
2023/02/02 22:32:21;;;;;;;35.27;21.10;;;;;;;;;;10357504;28;20273;-58
2023/02/02 22:37:21;;;;;;;34.25;20.85;;;;;;;;;;10347005;28;20746;-62
2023/02/02 22:42:22;;;;;;;32.78;19.52;;;;;;;;;;10329885;28;20547;-64
2023/02/02 22:47:22;;;;;;;32.47;19.92;;;;;;;;;;10326929;28;20077;-64
2023/02/02 22:52:24;;;;;;;32.28;19.40;;;;;;;;;;10329137;28;20402;-59
2023/02/02 22:57:25;;;;;;;32.17;21.65;;;;;;;;;;10330797;28;20027;-56
2023/02/02 23:02:25;;;;;;;34.75;22.58;;;;;;;;;;10328263;28;20026;-59
2023/02/02 23:07:26;;;;;;;35.75;22.83;;;;;;;;;;10327489;28;20548;-63
2023/02/02 23:12:27;;;;;;;38.53;23.20;;;;;;;;;;10329558;28;20022;-53
2023/02/02 23:17:28;;;;;;;35.47;23.83;;;;;;;;;;10345428;28;20112;-55
2023/02/02 23:22:29;;;;;;;41.22;24.38;;;;;;;;;;10330921;28;20041;-61
2023/02/02 23:27:30;;;;;;;37.90;24.77;;;;;;;;;;10327218;28;20035;-65
2023/02/02 23:32:30;;;;;;;31.65;22.88;;;;;;;;;;10327747;28;20026;-63
2023/02/02 23:37:31;;;;;;;33.25;23.13;;;;;;;;;;10332238;28;20494;-66
2023/02/02 23:42:32;;;;;;;33.15;24.50;;;;;;;;;;10363399;28;20488;-51
2023/02/02 23:47:34;;;;;;;39.40;23.58;;;;;;;;;;10335804;28;20514;-53
2023/02/02 23:52:38;;;;;;;34.80;23.40;;;;;;;;;;10334355;28;20041;-60
2023/02/02 23:57:38;;;;;;;36.58;22.73;;;;;;;;;;10339027;28;20097;-51
